Time;durP1;ratioP1;P1;durP2;ratioP2;P2;SDS_P1;SDS_P2;PMS_P1;PMS_P2;Temp;Humidity;BMP_temperature;BMP_pressure;BME280_temperature;BME280_humidity;BME280_pressure;Samples;Min_cycle;Max_cycle;Signal;HPM_P1;HPM_P2
2021/11/07 00:05:03;;;;;;;0.20;0.20;;;;;;;12.58;80.15;100879.88;6314094;22;20384;-79
2021/11/07 00:13:11;;;;;;;;;;;;;;;;;;;;;
2021/11/07 00:15:37;;;;;;;1.30;0.43;;;;;;;12.14;80.86;100855.53;6305107;22;20485;-80
2021/11/07 00:18:07;;;;;;;0.75;0.32;;;;;;;12.14;81.08;100865.69;6275409;22;20030;-80
2021/11/07 00:26:26;;;;;;;2.22;1.13;;;;;;;12.02;80.94;100855.75;6319609;22;20035;-80
2021/11/07 00:28:56;;;;;;;5.70;1.33;;;;;;;12.10;80.37;100872.78;6283956;22;20050;-79
2021/11/07 00:31:39;;;;;;;5.50;1.15;;;;;;;12.05;80.37;100877.16;6282257;22;20094;-79
2021/11/07 00:36:58;;;;;;;3.47;1.20;;;;;;;12.24;78.58;100884.94;6282278;22;20064;-77
2021/11/07 00:39:40;;;;;;;4.38;1.10;;;;;;;12.31;77.67;100885.53;6256426;22;20057;-78
2021/11/07 00:47:30;;;;;;;3.90;1.27;;;;;;;12.41;75.09;100901.19;6275629;22;20011;-78
2021/11/07 00:49:59;;;;;;;8.57;2.38;;;;;;;12.37;74.52;100900.91;6282018;22;20456;-77
2021/11/07 00:53:16;;;;;;;1.52;0.85;;;;;;;12.36;73.20;100902.00;6301545;22;20011;-77
2021/11/07 00:55:21;;;;;;;3.38;1.02;;;;;;;12.32;72.55;100900.88;6230598;22;20075;-77
2021/11/07 00:58:01;;;;;;;1.70;1.10;;;;;;;12.31;71.65;100912.94;6253983;22;20034;-78
2021/11/07 01:03:09;;;;;;;5.93;1.20;;;;;;;12.33;71.90;100918.97;6280188;22;20434;-79
2021/11/07 01:06:03;;;;;;;;;;;;;;;;;;;;;
2021/11/07 01:08:40;;;;;;;8.38;0.85;;;;;;;12.30;71.37;100907.72;6285086;22;20057;-77
2021/11/07 01:11:06;;;;;;;4.28;1.42;;;;;;;12.27;71.26;100947.47;6274195;22;20425;-77
2021/11/07 01:13:48;;;;;;;7.32;1.35;;;;;;;11.94;72.02;100911.06;6303083;22;20003;-76
2021/11/07 01:16:21;;;;;;;9.05;1.58;;;;;;;11.80;72.18;100901.63;6303996;22;19995;-77
2021/11/07 01:18:54;;;;;;;7.35;1.20;;;;;;;11.64;72.19;100893.28;6277875;22;19999;-77
2021/11/07 01:21:26;;;;;;;8.15;1.90;;;;;;;11.57;72.15;100911.84;6276516;22;20414;-76
2021/11/07 01:23:59;;;;;;;15.90;1.88;;;;;;;11.49;71.45;100912.31;6277650;22;20029;-76
2021/11/07 01:26:37;;;;;;;11.45;1.40;;;;;;;11.31;70.33;100906.13;6302625;22;20699;-77
2021/11/07 01:31:37;;;;;;;8.65;1.38;;;;;;;11.11;69.94;100916.88;6315108;22;20041;-77
2021/11/07 01:34:07;;;;;;;8.65;2.08;;;;;;;11.05;70.44;100917.91;6302968;22;20006;-76
2021/11/07 01:39:20;;;;;;;6.20;1.15;;;;;;;10.92;70.63;100933.66;6302381;22;20061;-77
2021/11/07 01:44:38;;;;;;;5.63;1.27;;;;;;;10.85;70.72;100941.22;6345321;22;20009;-77
2021/11/07 01:47:12;;;;;;;13.00;2.17;;;;;;;10.68;71.03;100929.53;6333615;22;20002;-77
2021/11/07 01:49:41;;;;;;;9.30;1.58;;;;;;;10.61;70.58;100933.25;6304617;22;20018;-78
2021/11/07 01:52:08;;;;;;;15.20;1.98;;;;;;;10.60;71.28;100933.50;6304844;22;20019;-77
2021/11/07 01:54:51;;;;;;;17.38;2.72;;;;;;;10.50;70.75;100926.00;6332665;22;20007;-76
2021/11/07 01:57:24;;;;;;;11.93;1.25;;;;;;;10.50;71.10;100928.75;6330194;22;20071;-76
2021/11/07 02:00:00;;;;;;;8.80;1.95;;;;;;;10.34;71.45;100941.38;6305671;22;20002;-77
2021/11/07 02:02:31;;;;;;;19.85;2.80;;;;;;;10.22;71.82;100919.59;6304783;22;20066;-77
2021/11/07 02:04:57;;;;;;;8.75;1.65;;;;;;;10.31;71.74;100947.31;6308830;22;20033;-76
2021/11/07 02:07:35;;;;;;;8.85;2.35;;;;;;;10.20;71.99;100946.31;6307490;22;19999;-76
2021/11/07 02:10:04;;;;;;;10.70;1.73;;;;;;;10.04;72.30;100936.25;6315642;22;20076;-77
2021/11/07 02:12:32;;;;;;;13.43;2.17;;;;;;;10.07;72.42;100949.41;6326113;22;20021;-76
2021/11/07 02:15:10;;;;;;;;;;;;;;;;;;;;;
2021/11/07 02:17:36;;;;;;;9.23;1.17;;;;;;;9.98;72.26;100950.91;6335345;22;20085;-78
2021/11/07 02:20:07;;;;;;;10.27;2.05;;;;;;;9.85;72.04;100944.69;6335123;22;20042;-78
2021/11/07 02:22:32;;;;;;;15.00;1.75;;;;;;;9.75;72.30;100944.53;6335896;22;20002;-78
2021/11/07 02:25:08;;;;;;;;;;;;;;;;;;;;;
2021/11/07 02:27:34;;;;;;;15.40;2.50;;;;;;;9.75;72.84;100960.91;6334630;22;20082;-80
2021/11/07 02:30:15;;;;;;;13.93;2.30;;;;;;;9.63;72.67;100952.81;6334867;22;20034;-80
2021/11/07 02:33:02;;;;;;;10.30;2.17;;;;;;;9.54;73.04;100946.09;6308164;22;20019;-80
2021/11/07 02:35:33;;;;;;;12.93;2.20;;;;;;;9.35;73.20;100920.94;6335172;22;20006;-79
2021/11/07 02:38:09;;;;;;;;;;;;;;;;;;;;;
2021/11/07 02:40:35;;;;;;;16.92;2.53;;;;;;;9.21;73.66;100914.94;6337665;22;20078;-78
2021/11/07 02:43:10;;;;;;;;;;;;;;;;;;;;;
2021/11/07 02:45:46;;;;;;;15.05;2.33;;;;;;;9.24;73.58;100939.84;6336912;22;20085;-77
2021/11/07 02:48:34;;;;;;;16.02;1.95;;;;;;;9.24;73.47;100939.84;6336269;22;20421;-77
2021/11/07 02:50:59;;;;;;;17.10;2.00;;;;;;;9.27;72.95;100946.69;6338588;22;20011;-78
2021/11/07 02:53:33;;;;;;;16.33;2.20;;;;;;;9.13;73.25;100929.00;6308709;22;20019;-78
2021/11/07 02:56:00;;;;;;;13.00;2.00;;;;;;;9.17;73.18;100939.16;6307459;22;20006;-77
2021/11/07 03:01:23;;;;;;;22.27;2.35;;;;;;;9.15;72.94;100941.28;6333974;22;20089;-78
2021/11/07 03:03:57;;;;;;;10.50;2.03;;;;;;;9.05;72.74;100931.03;6310048;22;20083;-78
2021/11/07 03:06:41;;;;;;;;;;;;;;;;;;;;;
2021/11/07 03:09:13;;;;;;;6.28;1.92;;;;;;;8.99;73.26;100920.25;6339004;22;20524;-77
2021/11/07 03:11:41;;;;;;;13.88;1.83;;;;;;;9.04;72.77;100923.09;6335353;22;20079;-76
2021/11/07 03:14:12;;;;;;;8.77;1.20;;;;;;;9.06;72.55;100927.22;6335321;22;21088;-76
2021/11/07 03:16:42;;;;;;;4.13;1.73;;;;;;;9.18;71.95;100940.81;6309641;22;20010;-77
2021/11/07 03:19:08;;;;;;;5.70;1.73;;;;;;;9.24;71.77;100949.91;6334070;22;20448;-77
2021/11/07 03:21:39;;;;;;;9.77;1.65;;;;;;;9.18;71.54;100946.25;6282803;22;20003;-76
2021/11/07 03:24:30;;;;;;;7.15;1.52;;;;;;;9.32;71.51;100956.91;6334277;22;20002;-77
2021/11/07 03:27:15;;;;;;;;;;;;;;;;;;;;;
2021/11/07 03:32:38;;;;;;;14.65;1.75;;;;;;;9.04;71.32;100917.63;6210181;23;20474;-79
2021/11/07 03:35:06;;;;;;;14.02;2.67;;;;;;;9.20;71.43;100935.94;6318173;22;20017;-78
2021/11/07 03:37:37;;;;;;;17.25;2.22;;;;;;;9.20;70.87;100938.69;6337349;22;20051;-78
2021/11/07 03:40:12;;;;;;;8.48;1.63;;;;;;;9.20;70.87;100943.28;6338111;22;20059;-79
2021/11/07 03:42:38;;;;;;;7.85;1.80;;;;;;;9.26;71.10;100940.41;6311523;22;20007;-79
2021/11/07 03:45:08;;;;;;;10.00;1.50;;;;;;;9.17;71.27;100927.41;6336630;22;20668;-79
2021/11/07 03:47:34;;;;;;;5.10;1.35;;;;;;;9.25;70.78;100946.94;6335980;22;20081;-79
2021/11/07 03:50:03;;;;;;;10.75;1.92;;;;;;;9.21;70.91;100945.78;6338272;22;20366;-78
2021/11/07 03:52:50;;;;;;;9.30;1.15;;;;;;;9.32;70.77;100963.19;6335047;22;20325;-79
2021/11/07 03:55:16;;;;;;;8.45;1.20;;;;;;;9.19;70.36;100947.09;6336207;22;20447;-78
2021/11/07 03:57:41;;;;;;;13.10;1.33;;;;;;;9.25;70.97;100952.41;6337112;22;20376;-78
2021/11/07 04:00:25;;;;;;;8.68;0.98;;;;;;;9.22;70.57;100947.44;6338477;22;20097;-80
2021/11/07 04:02:53;;;;;;;8.85;1.50;;;;;;;9.23;70.27;100940.09;6337817;22;20003;-77
2021/11/07 04:05:23;;;;;;;7.93;1.13;;;;;;;9.39;70.31;100963.03;6337907;22;20018;-78
2021/11/07 04:07:50;;;;;;;9.15;2.17;;;;;;;9.44;69.96;100966.66;6333436;22;20089;-77
2021/11/07 04:10:31;;;;;;;2.40;1.05;;;;;;;9.41;70.13;100966.34;6337934;22;20060;-78
2021/11/07 04:12:59;;;;;;;4.70;1.20;;;;;;;9.35;69.91;100953.69;6309204;22;20714;-78
2021/11/07 04:15:35;;;;;;;;;;;;;;;;;;;;;
2021/11/07 04:18:03;;;;;;;13.77;1.80;;;;;;;9.29;70.10;100963.66;6311123;22;20077;-78
2021/11/07 04:20:28;;;;;;;8.15;1.67;;;;;;;9.33;70.01;100969.47;6335210;22;20006;-77
2021/11/07 04:29:14;;;;;;;5.90;1.27;;;;;;;9.17;70.23;100963.72;6292517;22;20007;-77
2021/11/07 04:31:49;;;;;;;7.45;1.30;;;;;;;9.20;70.57;100976.88;6307734;22;20029;-78
2021/11/07 04:34:15;;;;;;;7.55;1.48;;;;;;;9.07;70.57;100971.72;6281771;22;20011;-79
2021/11/07 04:36:41;;;;;;;15.50;2.35;;;;;;;9.07;71.01;100977.16;6310688;22;20082;-78
2021/11/07 04:42:52;;;;;;;11.30;1.80;;;;;;;9.03;71.32;100981.44;6305351;22;20018;-78
2021/11/07 04:45:18;;;;;;;8.68;1.58;;;;;;;9.04;71.39;100985.84;6306908;22;20077;-79
2021/11/07 04:47:49;;;;;;;6.55;1.27;;;;;;;9.03;71.26;100992.34;6305051;22;20007;-79
2021/11/07 04:50:27;;;;;;;7.85;1.35;;;;;;;9.00;71.45;100992.84;6278510;22;20345;-78
2021/11/07 04:54:09;;;;;;;;;;;;;;;;;;;;;
2021/11/07 05:00:07;;;;;;;11.02;1.38;;;;;;;8.86;72.14;100984.09;6070910;23;20010;-78
2021/11/07 05:02:48;;;;;;;4.25;1.15;;;;;;;8.89;72.77;100989.91;6067537;23;20477;-77
2021/11/07 05:05:20;;;;;;;13.30;2.33;;;;;;;8.83;72.08;100988.13;6191440;22;20006;-78
2021/11/07 05:07:55;;;;;;;6.68;1.38;;;;;;;8.83;72.32;100992.75;6301596;22;20011;-78
2021/11/07 05:10:39;;;;;;;2.33;1.35;;;;;;;8.90;72.39;101005.19;6305397;22;20075;-78
2021/11/07 05:16:31;;;;;;;9.63;1.33;;;;;;;8.71;72.71;100981.88;6274099;22;20011;-76
2021/11/07 05:19:06;;;;;;;7.53;1.42;;;;;;;8.73;72.61;100998.81;6303744;22;20414;-77
2021/11/07 05:21:51;;;;;;;;;;;;;;;;;;;;;
2021/11/07 05:24:30;;;;;;;;;;;;;;;;;;;;;
2021/11/07 05:26:56;;;;;;;12.73;2.42;;;;;;;8.69;72.34;101005.84;6297132;22;20088;-76
2021/11/07 05:29:32;;;;;;;;;;;;;;;;;;;;;
2021/11/07 05:32:09;;;;;;;;;;;;;;;;;;;;;
2021/11/07 05:34:40;;;;;;;8.70;2.00;;;;;;;8.59;72.78;100997.44;6300352;22;20086;-76
2021/11/07 05:37:08;;;;;;;6.78;2.35;;;;;;;8.46;72.96;100991.16;6302073;22;20004;-76
2021/11/07 05:39:34;;;;;;;14.13;1.77;;;;;;;8.47;73.45;100989.25;6292807;22;20012;-76
2021/11/07 05:42:00;;;;;;;5.90;1.38;;;;;;;8.43;73.38;100985.31;6246896;22;20031;-75
2021/11/07 05:44:28;;;;;;;9.80;2.08;;;;;;;8.44;73.26;100986.97;6247850;22;20003;-76
2021/11/07 05:46:54;;;;;;;8.18;1.60;;;;;;;8.38;73.29;100983.28;6246407;22;20018;-77
2021/11/07 05:49:20;;;;;;;25.83;2.38;;;;;;;8.37;73.27;101000.72;6273160;22;20007;-77
2021/11/07 05:51:46;;;;;;;13.80;2.13;;;;;;;8.30;73.83;100997.28;6220293;22;20003;-75
2021/11/07 05:54:11;;;;;;;4.18;1.58;;;;;;;8.31;73.77;100990.75;6273015;22;20035;-75
2021/11/07 05:56:37;;;;;;;8.70;1.80;;;;;;;8.30;73.57;101000.00;6274398;22;20007;-76
2021/11/07 05:59:08;;;;;;;11.00;2.30;;;;;;;8.19;73.60;100988.88;6220108;22;20008;-76
2021/11/07 06:01:35;;;;;;;5.90;1.50;;;;;;;8.27;73.87;100995.88;6275393;22;20421;-78
2021/11/07 06:04:02;;;;;;;11.43;1.40;;;;;;;8.18;73.16;100987.22;6242385;22;20003;-78
2021/11/07 06:06:28;;;;;;;9.02;1.55;;;;;;;8.13;73.34;100992.56;6222879;22;20004;-77
2021/11/07 06:08:53;;;;;;;13.15;1.83;;;;;;;8.12;73.76;100999.06;6271239;22;20011;-77
2021/11/07 06:11:24;;;;;;;9.57;1.48;;;;;;;8.15;73.14;100995.84;6271542;22;20004;-79
2021/11/07 06:13:49;;;;;;;15.43;2.15;;;;;;;8.13;73.32;101000.72;6199588;22;20031;-79
2021/11/07 06:16:15;;;;;;;14.10;2.10;;;;;;;8.07;73.49;100985.31;6272146;22;20806;-79
2021/11/07 06:18:41;;;;;;;6.40;1.45;;;;;;;8.07;73.54;100985.31;6246832;22;20449;-79
2021/11/07 06:21:08;;;;;;;8.60;1.42;;;;;;;8.02;72.98;100990.63;6273994;22;20427;-76
2021/11/07 06:23:34;;;;;;;8.20;1.45;;;;;;;8.07;73.20;101007.09;6247591;22;20064;-77
2021/11/07 06:26:01;;;;;;;11.52;1.77;;;;;;;8.08;73.43;101008.75;6256502;22;20000;-78
2021/11/07 06:28:28;;;;;;;13.68;1.60;;;;;;;7.95;72.95;100992.66;6269134;22;20029;-76
2021/11/07 06:31:01;;;;;;;12.77;1.83;;;;;;;7.91;73.06;100984.09;6247260;22;20007;-78
2021/11/07 06:33:27;;;;;;;4.13;1.40;;;;;;;7.87;73.35;100991.09;6223557;22;20090;-77
2021/11/07 06:35:52;;;;;;;6.75;1.85;;;;;;;7.92;73.20;100993.13;6221340;22;20035;-77
2021/11/07 06:38:18;;;;;;;8.15;1.67;;;;;;;8.00;73.37;101007.22;6271413;22;20004;-78
2021/11/07 06:40:43;;;;;;;9.07;1.58;;;;;;;7.98;73.19;101008.50;6250635;22;20030;-78
2021/11/07 06:43:11;;;;;;;15.80;1.92;;;;;;;7.91;73.27;101002.34;6302919;22;20007;-78
2021/11/07 06:45:38;;;;;;;15.73;2.05;;;;;;;7.89;73.20;101018.91;6277493;22;20003;-77
2021/11/07 06:48:07;;;;;;;8.98;1.65;;;;;;;7.90;73.51;101023.31;6254485;22;20011;-76
2021/11/07 06:50:36;;;;;;;14.25;1.77;;;;;;;7.90;73.92;101015.13;6305723;22;20010;-78
2021/11/07 06:53:02;;;;;;;10.93;1.58;;;;;;;7.84;73.43;101022.34;6280617;22;19999;-78
2021/11/07 06:55:31;;;;;;;11.90;1.60;;;;;;;7.81;73.27;101000.19;6278859;22;20003;-77
2021/11/07 06:57:59;;;;;;;12.90;2.83;;;;;;;7.81;73.86;100994.72;6284454;22;20333;-76
2021/11/07 07:00:26;;;;;;;4.30;1.70;;;;;;;7.88;74.39;101019.16;6279059;22;20014;-76
2021/11/07 07:02:52;;;;;;;15.00;2.20;;;;;;;7.83;73.84;101008.97;6328366;22;20443;-76
2021/11/07 07:05:18;;;;;;;14.32;2.17;;;;;;;7.86;74.37;101005.78;6298603;22;19991;-77
2021/11/07 07:07:49;;;;;;;11.75;2.20;;;;;;;7.86;74.15;101006.59;6329215;22;20002;-75
2021/11/07 07:10:36;;;;;;;16.08;2.63;;;;;;;7.94;73.95;101018.22;6285940;22;20014;-75
2021/11/07 07:15:38;;;;;;;12.45;2.47;;;;;;;8.03;73.48;101012.19;6316542;22;20007;-76
2021/11/07 07:34:22;;;;;;;13.82;2.42;;;;;;;8.34;73.26;101051.06;6313091;22;20010;-80
2021/11/07 07:36:48;;;;;;;6.32;2.13;;;;;;;8.37;72.84;101049.78;6280546;22;20421;-76
2021/11/07 07:39:16;;;;;;;19.73;2.78;;;;;;;8.38;72.92;101051.41;6274633;22;20038;-77
2021/11/07 07:41:41;;;;;;;10.90;2.28;;;;;;;8.48;72.89;101051.69;6310379;22;20461;-78
2021/11/07 07:44:11;;;;;;;12.25;2.10;;;;;;;8.48;72.80;101035.34;6310463;22;20039;-79
2021/11/07 07:46:43;;;;;;;17.35;2.78;;;;;;;8.59;72.55;101041.88;6282178;22;20014;-79
2021/11/07 07:49:16;;;;;;;15.75;2.70;;;;;;;8.61;72.54;101025.28;6310326;22;20006;-74
2021/11/07 07:51:42;;;;;;;9.40;2.30;;;;;;;8.64;72.09;101038.44;6350948;22;19993;-76
2021/11/07 07:54:08;;;;;;;7.65;2.35;;;;;;;8.73;71.88;101031.53;6333724;22;20014;-76
2021/11/07 07:56:35;;;;;;;11.43;2.30;;;;;;;8.74;71.47;101033.19;6361713;22;20046;-77
2021/11/07 07:59:01;;;;;;;25.00;3.80;;;;;;;8.80;71.64;101040.41;6320881;22;20094;-77
2021/11/07 08:01:29;;;;;;;12.60;2.15;;;;;;;8.85;71.41;101035.09;6338373;22;20010;-78
2021/11/07 08:03:55;;;;;;;20.27;2.47;;;;;;;8.82;71.30;101037.44;6338446;22;20089;-78
2021/11/07 08:06:21;;;;;;;15.18;3.10;;;;;;;8.86;70.96;101042.22;6304175;22;20425;-77
2021/11/07 08:08:47;;;;;;;12.70;2.17;;;;;;;8.95;71.17;101047.28;6308483;22;20013;-77
2021/11/07 08:11:14;;;;;;;10.63;2.72;;;;;;;9.02;70.95;101061.63;6279488;22;20370;-76
2021/11/07 08:13:41;;;;;;;12.43;2.05;;;;;;;9.05;70.60;101058.41;6311039;22;20002;-76
2021/11/07 08:16:06;;;;;;;13.68;2.22;;;;;;;9.14;70.51;101054.25;6307043;22;20006;-77
2021/11/07 08:18:33;;;;;;;20.27;2.67;;;;;;;9.26;69.93;101057.78;6307978;22;20014;-76
2021/11/07 08:20:59;;;;;;;9.57;1.63;;;;;;;9.31;69.65;101056.22;6307955;22;20011;-76
2021/11/07 08:23:25;;;;;;;10.50;2.40;;;;;;;9.50;69.62;101074.06;6333569;22;20077;-76
2021/11/07 08:25:51;;;;;;;12.23;2.30;;;;;;;9.51;69.53;101061.25;6308466;22;20030;-78
2021/11/07 08:28:20;;;;;;;8.38;1.42;;;;;;;9.66;68.89;101074.38;6307568;22;20078;-75
2021/11/07 08:30:50;;;;;;;16.40;3.10;;;;;;;9.76;68.30;101088.22;6333835;22;20010;-76
2021/11/07 08:33:15;;;;;;;18.30;3.13;;;;;;;9.82;68.14;101076.31;6336541;22;20010;-78
2021/11/07 08:35:42;;;;;;;13.57;2.17;;;;;;;9.94;68.05;101079.84;6334701;22;20009;-77
2021/11/07 08:38:12;;;;;;;9.52;1.92;;;;;;;10.02;67.90;101086.78;6335115;22;20027;-78
2021/11/07 08:40:44;;;;;;;7.88;1.80;;;;;;;10.19;67.37;101092.28;6310783;22;20018;-76
2021/11/07 09:00:20;;;;;;;4.80;2.10;;;;;;;13.24;58.29;101080.78;6291411;22;20037;-78
2021/11/07 09:08:16;;;;;;;4.93;2.08;;;;;;;13.64;56.05;101065.59;6312871;22;20013;-79
2021/11/07 09:10:52;;;;;;;4.68;1.65;;;;;;;13.50;56.16;101061.69;6310730;22;20055;-80
2021/11/07 09:13:18;;;;;;;8.48;2.17;;;;;;;13.29;56.63;101056.13;6283733;22;20030;-79
2021/11/07 09:15:50;;;;;;;7.82;2.10;;;;;;;13.26;56.31;101051.16;6308764;22;20014;-80
2021/11/07 09:18:17;;;;;;;5.13;1.90;;;;;;;13.29;56.82;101064.34;6306932;22;20089;-79
2021/11/07 09:23:33;;;;;;;9.63;1.83;;;;;;;13.55;55.96;101069.94;6308229;22;20003;-79
2021/11/07 09:26:13;;;;;;;10.15;2.08;;;;;;;13.53;55.68;101091.38;6335499;22;20089;-78
2021/11/07 09:31:36;;;;;;;7.07;2.65;;;;;;;13.56;56.40;101097.16;6278647;22;20099;-80
2021/11/07 09:34:13;;;;;;;5.47;1.60;;;;;;;13.65;56.38;101089.22;6308373;22;20067;-82
2021/11/07 09:36:55;;;;;;;10.05;2.90;;;;;;;13.99;55.48;101116.25;6306902;22;20021;-81
2021/11/07 09:45:59;;;;;;;;;;;;;;;;;;;;;
2021/11/07 09:48:32;;;;;;;8.80;1.70;;;;;;;14.83;53.37;101097.59;6330989;22;20093;-78
2021/11/07 09:50:57;;;;;;;7.43;1.48;;;;;;;15.03;52.61;101095.88;6305333;22;20488;-78
2021/11/07 09:53:23;;;;;;;3.38;1.23;;;;;;;15.26;52.12;101110.09;6336053;22;20083;-77
2021/11/07 09:55:51;;;;;;;8.35;1.75;;;;;;;15.69;51.78;101119.56;6335677;22;20354;-77
2021/11/07 09:58:22;;;;;;;5.10;1.67;;;;;;;15.98;51.44;101112.56;6309179;22;20404;-75
2021/11/07 10:00:54;;;;;;;7.22;1.67;;;;;;;16.16;50.36;101117.38;6279501;22;20477;-78
2021/11/07 10:03:21;;;;;;;11.95;2.15;;;;;;;16.22;49.88;101109.91;6307983;22;20002;-76
2021/11/07 10:05:50;;;;;;;6.97;2.13;;;;;;;16.25;48.34;101125.06;6307054;22;20109;-75
2021/11/07 10:08:27;;;;;;;8.35;1.75;;;;;;;16.38;48.24;101107.84;6334322;22;20085;-75
2021/11/07 10:11:04;;;;;;;9.18;2.30;;;;;;;16.48;48.15;101113.28;6306721;22;20145;-76
2021/11/07 10:13:30;;;;;;;11.85;2.08;;;;;;;16.79;47.87;101106.66;6302841;22;20089;-76
2021/11/07 10:16:14;;;;;;;5.65;1.60;;;;;;;17.28;46.51;101102.84;6332626;22;20002;-76
2021/11/07 10:21:44;;;;;;;8.25;2.03;;;;;;;17.91;44.85;101101.75;6333735;22;20013;-74
2021/11/07 10:24:17;;;;;;;6.25;2.08;;;;;;;17.93;45.29;101113.34;6313124;22;20115;-77
2021/11/07 10:26:50;;;;;;;11.05;2.40;;;;;;;18.01;44.72;101113.81;6305691;22;20337;-75
2021/11/07 10:29:36;;;;;;;10.35;2.60;;;;;;;17.57;43.85;101124.06;6334405;22;20003;-75
2021/11/07 10:32:09;;;;;;;6.38;2.58;;;;;;;17.41;44.42;101123.44;6339724;22;20002;-77
2021/11/07 10:45:10;;;;;;;7.82;2.55;;;;;;;19.31;41.77;101112.09;6356201;22;20452;-77
2021/11/07 10:53:23;;;;;;;4.70;1.80;;;;;;;19.99;39.20;101120.66;6333745;22;20030;-77
2021/11/07 10:56:01;;;;;;;5.63;1.83;;;;;;;20.20;38.14;101120.16;6308301;22;20007;-75
2021/11/07 10:58:28;;;;;;;6.43;2.00;;;;;;;20.31;37.94;101129.06;6337519;22;20026;-75
2021/11/07 11:00:55;;;;;;;10.20;2.05;;;;;;;20.23;36.95;101125.09;6336400;22;20002;-78
2021/11/07 11:03:23;;;;;;;8.95;2.30;;;;;;;20.44;36.83;101113.47;6336655;22;20029;-77
2021/11/07 11:06:08;;;;;;;6.78;1.60;;;;;;;20.85;37.95;101112.44;6310257;22;19999;-79
2021/11/07 11:08:38;;;;;;;4.05;1.88;;;;;;;21.27;36.21;101108.22;6336622;22;20010;-80
2021/11/07 11:11:24;;;;;;;4.25;1.17;;;;;;;21.67;36.42;101104.59;6310433;22;20003;-78
2021/11/07 11:16:45;;;;;;;5.70;1.80;;;;;;;21.93;35.37;101101.00;6346331;22;20077;-77
2021/11/07 11:22:44;;;;;;;9.43;2.95;;;;;;;22.07;33.11;101096.09;6344012;22;20017;-76
2021/11/07 11:28:17;;;;;;;6.53;1.95;;;;;;;20.89;34.52;101096.78;6319740;22;20033;-78
2021/11/07 11:31:04;;;;;;;4.82;1.80;;;;;;;20.40;34.85;101091.91;6293845;22;20011;-76
2021/11/07 11:33:47;;;;;;;10.50;2.08;;;;;;;20.41;35.81;101092.69;6314375;22;20007;-76
2021/11/07 11:36:31;;;;;;;7.00;2.20;;;;;;;20.61;35.66;101096.13;6334958;22;20054;-76
2021/11/07 11:39:18;;;;;;;6.20;2.22;;;;;;;20.78;34.86;101078.72;6338704;22;20424;-76
2021/11/07 11:41:50;;;;;;;7.13;2.45;;;;;;;20.83;33.89;101064.72;6341233;22;20019;-78
2021/11/07 11:44:17;;;;;;;13.45;2.20;;;;;;;21.02;33.66;101073.59;6337776;22;20060;-76
2021/11/07 11:46:56;;;;;;;5.90;2.00;;;;;;;20.99;34.03;101068.69;6315726;22;20069;-76
2021/11/07 12:05:49;;;;;;;9.35;2.28;;;;;;;22.59;31.39;101055.38;6341449;22;20046;-79
2021/11/07 12:11:48;;;;;;;4.57;1.58;;;;;;;22.18;30.64;101024.19;6347134;22;20007;-79
2021/11/07 12:14:30;;;;;;;6.60;1.95;;;;;;;21.81;31.16;101039.59;6287586;22;20603;-77
2021/11/07 12:17:22;;;;;;;9.05;2.50;;;;;;;21.82;31.70;101018.97;6287293;22;20067;-77
2021/11/07 12:19:48;;;;;;;8.48;1.80;;;;;;;21.84;31.21;101019.44;6286540;22;20006;-79
2021/11/07 12:25:55;;;;;;;12.73;1.83;;;;;;;22.65;30.44;101026.22;6338637;22;20063;-79
2021/11/07 12:28:42;;;;;;;4.75;1.75;;;;;;;22.88;30.45;101028.72;6349853;22;19999;-78
2021/11/07 12:31:11;;;;;;;16.35;2.85;;;;;;;22.94;28.89;101021.78;6364612;22;20018;-77
2021/11/07 12:34:16;;;;;;;6.38;2.10;;;;;;;23.28;28.98;101003.28;6362103;22;19986;-77
2021/11/07 12:43:01;;;;;;;9.88;2.60;;;;;;;23.02;28.76;101030.13;6356862;22;19993;-80
2021/11/07 12:45:35;;;;;;;7.28;2.45;;;;;;;22.83;29.75;101005.44;6354265;22;20014;-75
2021/11/07 12:48:06;;;;;;;9.73;1.98;;;;;;;22.80;29.36;101006.13;6329088;22;20005;-75
2021/11/07 12:50:59;;;;;;;6.53;1.92;;;;;;;23.09;29.25;101017.63;6338955;22;20002;-74
2021/11/07 12:53:29;;;;;;;9.48;1.50;;;;;;;23.38;28.70;101013.19;6337048;22;20303;-76
2021/11/07 12:55:55;;;;;;;15.45;2.35;;;;;;;23.64;28.00;101022.22;6335124;22;20364;-76
2021/11/07 12:58:21;;;;;;;10.15;1.55;;;;;;;23.60;28.45;101014.88;6310507;22;20105;-76
2021/11/07 13:00:49;;;;;;;10.32;2.42;;;;;;;23.53;28.57;101009.81;6333081;22;20010;-80
2021/11/07 13:03:17;;;;;;;10.82;1.92;;;;;;;23.19;29.63;101000.53;6338346;22;20014;-78
2021/11/07 13:05:45;;;;;;;6.78;1.85;;;;;;;22.96;29.39;101013.94;6307521;22;20402;-80
2021/11/07 13:08:23;;;;;;;6.35;2.47;;;;;;;22.31;29.39;101000.88;6305451;22;20010;-76
2021/11/07 13:11:08;;;;;;;9.23;1.98;;;;;;;22.02;30.40;101018.31;6334240;22;20005;-77
2021/11/07 13:16:53;;;;;;;3.63;1.50;;;;;;;22.72;30.38;101006.16;6268892;22;20006;-77
2021/11/07 13:22:39;;;;;;;6.50;2.08;;;;;;;22.96;29.17;101000.78;6252428;22;20017;-75
2021/11/07 13:25:19;;;;;;;4.93;1.58;;;;;;;22.51;29.43;101000.50;6333070;22;20014;-77
2021/11/07 13:27:49;;;;;;;7.43;1.65;;;;;;;22.13;30.29;101011.22;6335867;22;20348;-77
2021/11/07 13:30:19;;;;;;;5.32;2.08;;;;;;;;;;6334157;22;20718;-75
2021/11/07 13:32:46;;;;;;;7.78;2.72;;;;;;;21.46;31.14;101020.88;6306900;22;20015;-76
2021/11/07 13:35:18;;;;;;;4.68;1.63;;;;;;;21.08;31.96;101032.56;6305609;22;20010;-76
2021/11/07 13:38:05;;;;;;;7.45;1.63;;;;;;;20.97;32.51;101037.63;6331250;22;20003;-75
2021/11/07 13:40:37;;;;;;;7.70;1.98;;;;;;;21.17;32.59;101050.09;6332997;22;20015;-75
2021/11/07 13:43:14;;;;;;;7.90;2.00;;;;;;;21.55;31.82;101045.94;6335385;22;20010;-75
2021/11/07 13:45:43;;;;;;;4.53;1.30;;;;;;;22.10;31.14;101053.66;6330801;22;20006;-76
2021/11/07 13:48:19;;;;;;;6.55;1.65;;;;;;;22.42;30.53;101037.56;6336395;22;20018;-75
2021/11/07 13:50:44;;;;;;;7.75;2.03;;;;;;;22.41;29.77;101052.66;6322762;22;20006;-76
2021/11/07 13:53:30;;;;;;;2.85;1.77;;;;;;;22.54;29.85;101055.59;6325564;22;20085;-75
2021/11/07 13:55:59;;;;;;;5.15;1.60;;;;;;;22.61;30.16;101053.09;6334030;22;20003;-77
2021/11/07 13:58:28;;;;;;;7.68;1.63;;;;;;;22.95;30.42;101052.13;6334334;22;20056;-76
2021/11/07 14:00:57;;;;;;;9.82;2.13;;;;;;;23.18;29.39;101055.50;6334917;22;20003;-75
2021/11/07 14:03:23;;;;;;;3.53;1.48;;;;;;;23.27;30.15;101054.63;6335913;22;20003;-76
2021/11/07 14:06:18;;;;;;;3.63;1.33;;;;;;;23.91;29.94;101055.53;6333355;22;20018;-76
2021/11/07 14:08:44;;;;;;;2.05;1.42;;;;;;;24.38;28.21;101060.81;6333342;22;20086;-77
2021/11/07 14:11:12;;;;;;;3.92;1.25;;;;;;;24.36;28.33;101051.97;6333676;22;20073;-76
2021/11/07 14:13:49;;;;;;;2.60;1.75;;;;;;;24.10;28.24;101050.25;6336058;22;20093;-78
2021/11/07 14:16:39;;;;;;;4.55;2.08;;;;;;;24.46;28.46;101057.13;6333841;22;20089;-76
2021/11/07 14:19:09;;;;;;;3.55;1.10;;;;;;;25.06;28.34;101062.38;6312264;22;20068;-74
2021/11/07 14:21:39;;;;;;;1.75;1.02;;;;;;;25.42;27.81;101064.34;6334809;22;20007;-74
2021/11/07 14:24:09;;;;;;;3.25;1.25;;;;;;;25.54;27.40;101049.53;6338018;22;20392;-78
2021/11/07 14:31:48;;;;;;;3.03;1.55;;;;;;;24.38;27.56;101052.44;6335124;22;20057;-76
2021/11/07 14:34:33;;;;;;;2.63;1.23;;;;;;;23.73;28.83;101044.47;6310735;22;20002;-76
2021/11/07 14:37:07;;;;;;;8.35;1.85;;;;;;;23.18;29.61;101038.75;6336744;22;20362;-76
2021/11/07 14:39:48;;;;;;;2.15;1.00;;;;;;;22.91;30.35;101033.63;6310149;22;20394;-79
2021/11/07 14:45:37;;;;;;;2.70;1.15;;;;;;;22.41;30.67;101033.13;6318566;22;20006;-78
2021/11/07 14:56:46;;;;;;;4.53;1.58;;;;;;;21.70;31.95;101048.28;6338068;22;20093;-76
2021/11/07 15:02:35;;;;;;;2.83;1.02;;;;;;;21.05;32.61;101050.72;6348710;22;20391;-75
2021/11/07 15:05:15;;;;;;;3.97;1.48;;;;;;;20.52;33.29;101049.63;6335067;22;20036;-78
2021/11/07 15:07:57;;;;;;;3.97;1.67;;;;;;;19.99;33.73;101037.38;6336204;22;20022;-75
2021/11/07 15:13:20;;;;;;;8.60;1.50;;;;;;;19.07;35.68;101050.50;6348009;22;20010;-78
2021/11/07 15:21:47;;;;;;;4.60;1.52;;;;;;;18.35;36.26;101057.34;6299667;22;20009;-76
2021/11/07 15:24:28;;;;;;;5.03;1.20;;;;;;;17.96;37.41;101056.59;6324921;22;20014;-76
2021/11/07 15:26:58;;;;;;;2.30;1.00;;;;;;;17.65;37.80;101058.97;6339439;22;20005;-71
2021/11/07 15:29:54;;;;;;;3.80;1.30;;;;;;;17.41;37.92;101063.41;6341600;22;20449;-74
2021/11/07 15:32:28;;;;;;;5.70;1.00;;;;;;;17.05;38.71;101061.09;6336689;22;19998;-73
2021/11/07 15:34:53;;;;;;;5.05;1.13;;;;;;;16.70;39.78;101065.03;6336598;22;19999;-73